Nearby METAR Reports

 

KFNL - Ft Collins/Lovel, Colorado, USA
Distance from station: NW 10mi, 16km
Updated: Sat, 24-Feb-2018 3:56pm MST
Clear
Clear
 Wind from WSW
Wind: WSW 21 mph , 33 km/h, Gust: 26 mph , 43 km/h
Temperature: 32°F , 0°C
Wind Chill: 20°F , -7°C
Dew Point: 9°F , -13°C
Humidity: 37%
Barometer: 29.72 inHg , 1006.4 hPa
Clouds: Clear
Visibility: 10 miles , 16 km
2018/02/24 22:56 KFNL 242256Z AUTO 25018G23KT 10SM CLR 00/M13 A2972 RMK AO2 SLP089 T00001133 FZRANO
KGXY - Greeley/Weld, Colorado, USA
Distance from station: ENE 14mi, 23km
Updated: Sat, 24-Feb-2018 3:56pm MST
Clear
Clear
 Wind from N
Wind: N 12 mph , 19 km/h
Temperature: 34°F , 1°C
Wind Chill: 25°F , -4°C
Dew Point: 9°F , -13°C
Humidity: 35%
Barometer: 29.77 inHg , 1008.1 hPa
Clouds: Clear
Visibility: 10 miles , 16 km
2018/02/24 22:56 KGXY 242256Z AUTO 01010KT 10SM CLR 01/M13 A2977 RMK AO2 SLP122 T00061133 FZRANO
 
KLMO - Longmont/Vbrand, Colorado, USA
Distance from station: SW 20mi, 32km
Updated: Sat, 24-Feb-2018 4:35pm MST
Clear
Clear
 Wind from WSW
Wind: WSW 15 mph , 24 km/h, Gust: 18 mph , 30 km/h
Temperature: 36°F , 2°C
Wind Chill: 27°F , -3°C
Dew Point: 5°F , -15°C
Humidity: 27%
Barometer: 29.76 inHg , 1007.8 hPa
Clouds: Clear
Visibility: 10 miles , 16 km
2018/02/24 23:35 KLMO 242335Z AUTO 25013G16KT 10SM CLR 02/M15 A2976 RMK AO2 T00181154
KEIK - Erie Muni, Colorado, USA
Distance from station: SSW 25mi, 40km
Updated: Sat, 24-Feb-2018 4:36pm MST
Clear
Clear
 Wind from WNW
Wind: WNW 7 mph , 11 km/h, Gust: 16 mph , 26 km/h
Temperature: 34°F , 1°C
Wind Chill: 28°F , -2°C
Dew Point: 1°F , -17°C
Humidity: 25%
Barometer: 29.80 inHg , 1009.1 hPa
Clouds: Clear
Visibility: 10 miles , 16 km
2018/02/24 23:36 KEIK 242336Z AUTO 29006G14KT 10SM CLR 01/M17 A2980 RMK AO2 T00131168
 
KBDU - Boulder Muni, Colorado, USA
Distance from station: SW 29mi, 47km
Updated: Sat, 24-Feb-2018 4:36pm MST
Clear
Clear
 Wind from W
Wind: W 8 mph , 13 km/h
Temperature: 34°F , 1°C
Wind Chill: 27°F , -3°C
Dew Point: 1°F , -17°C
Humidity: 25%
Barometer: 29.73 inHg , 1006.8 hPa
Clouds: Clear
Visibility: 10 miles , 16 km
2018/02/24 23:36 KBDU 242336Z AUTO 28007KT 10SM CLR 01/M17 A2973 RMK AO2
KBJC - Broomfield/Jeffc, Colorado, USA
Distance from station: SSW 33mi, 54km
Updated: Sat, 24-Feb-2018 3:47pm MST
Partly cloudy
Partly cloudy
 Wind from W
Wind: W 28 mph , 44 km/h, Gust: 35 mph , 56 km/h
Temperature: 32°F , 0°C
Wind Chill: 18°F , -8°C
Dew Point: 7°F , -14°C
Humidity: 34%
Barometer: 29.73 inHg , 1006.8 hPa
Clouds: Partly cloudy
Visibility: 30 miles , 48 km
Cloud details: Partly cloudy 6000 ft
2018/02/24 22:47 KBJC 242247Z COR 26024G30KT 30SM SCT060 00/M14 A2973 RMK ACSL DSNT NW
 
KDEN - Denver (dia), Colorado, USA
Distance from station: SSE 37mi, 59km
Updated: Sat, 24-Feb-2018 3:53pm MST
Few Clouds
Few Clouds
 Wind from WNW
Wind: WNW 18 mph , 30 km/h, Gust: 26 mph , 43 km/h
Temperature: 36°F , 2°C
Wind Chill: 26°F , -3°C
Dew Point: 1°F , -17°C
Humidity: 23%
Barometer: 29.73 inHg , 1006.8 hPa
Clouds: Few Clouds
Visibility: 10 miles , 16 km
Cloud details: Few Clouds 10000 ft
Few Clouds 20000 ft
2018/02/24 22:53 KDEN 242253Z 29016G23KT 10SM FEW100 FEW200 02/M17 A2973 RMK AO2 SLP081 T00171167 $
KFTG - Denver F. Range, Colorado, USA
Distance from station: SSE 43mi, 69km
Updated: Sat, 24-Feb-2018 3:47pm MST
Few Clouds
Few Clouds
 Wind from W
Wind: W 21 mph , 33 km/h, Gust: 26 mph , 43 km/h
Temperature: 37°F , 3°C
Wind Chill: 26°F , -3°C
Dew Point: 1°F , -17°C
Humidity: 22%
Barometer: 29.74 inHg , 1007.1 hPa
Clouds: Few Clouds
Visibility: 10 miles , 16 km
Cloud details: Few Clouds 7000 ft
Few Clouds 18000 ft
2018/02/24 22:47 KFTG 242247Z 28018G23KT 10SM FEW070 FEW180 03/M17 A2974
 
KBKF - Buckley Angb/Den, Colorado, USA
Distance from station: S 44mi, 71km
Updated: Sat, 24-Feb-2018 3:58pm MST
Few Clouds
Few Clouds
 Wind from N
Wind: N 13 mph , 20 km/h
Temperature: 34°F , 1°C
Wind Chill: 25°F , -4°C
Dew Point: 5°F , -15°C
Humidity: 29%
Barometer: 29.73 inHg , 1006.8 hPa
Clouds: Few Clouds
Visibility: 10 miles , 16 km
Cloud details: Few Clouds 7000 ft
Few Clouds 20000 ft
2018/02/24 22:58 KBKF 242258Z 01011KT 10SM FEW070 FEW200 01/M15 A2973 RMK AO2A SLP084 T00131152
KCAG - Craig, Colorado, USA
Distance from station: ESE 227mi, 365km
Updated: Sat, 24-Feb-2018 3:53pm MST
Few Clouds
Few Clouds
 Wind from WNW
Wind: WNW 7 mph , 11 km/h
Temperature: 21°F , -6°C
Wind Chill: 12°F , -11°C
Dew Point: 3°F , -16°C
Humidity: 45%
Barometer: 29.90 inHg , 1012.5 hPa
Clouds: Few Clouds
Visibility: 10 miles , 16 km
Cloud details: Few Clouds 12000 ft
2018/02/24 22:53 KCAG 242253Z AUTO 29006KT 10SM FEW120 M06/M16 A2990 RMK AO2 SLP184 T10561156
 
KHDN - Hayden/Yampa, Colorado, USA
Distance from station: E 211mi, 339km
Updated: Sat, 24-Feb-2018 3:56pm MST
Few Clouds
Few Clouds
 Wind from W
Wind: W 10 mph , 17 km/h
Temperature: 19°F , -7°C
Wind Chill: 8°F , -13°C
Dew Point: 7°F , -14°C
Humidity: 58%
Barometer: 29.89 inHg , 1012.2 hPa
Clouds: Few Clouds
Visibility: 10 miles , 16 km
Cloud details: Few Clouds 10000 ft
2018/02/24 22:56 KHDN 242256Z AUTO 28009KT 10SM FEW100 M07/M14 A2989 RMK AO2 SLP176 T10671139 FZRANO
KSBS - Steamboat Spring, Colorado, USA
Distance from station: E 186mi, 299km
Updated: Sat, 24-Feb-2018 4:34pm MST
Mostly cloudy
Mostly cloudy
 Wind from NW
Wind: NW 6 mph , 9 km/h
Temperature: 18°F , -8°C
Wind Chill: 10°F , -12°C
Dew Point: 5°F , -15°C
Humidity: 58%
Barometer: 29.86 inHg , 1011.2 hPa
Clouds: Mostly cloudy
Visibility: 10 miles , 16 km
Cloud details: Mostly cloudy 6500 ft
Mostly cloudy 12000 ft
2018/02/24 23:34 KSBS 242334Z AUTO 31005KT 10SM BKN065 BKN120 M08/M15 A2986 RMK AO1 T10791154
 
KDWX - Dixon, Wyoming, USA
Distance from station: N 278mi, 447km
Updated: Sat, 24-Feb-2018 4:35pm MST
Overcast
Overcast
 Wind from SW
Wind: SW 18 mph , 30 km/h, Gust: 23 mph , 37 km/h
Temperature: 19°F , -7°C
Wind Chill: 4°F , -16°C
Dew Point: 5°F , -15°C
Humidity: 53%
Barometer: 29.87 inHg , 1011.5 hPa
Clouds: Overcast
Visibility: 10 miles , 16 km
Cloud details: Mostly cloudy 5000 ft
Mostly cloudy 7000 ft
Overcast 9000 ft
2018/02/24 23:35 KDWX 242335Z AUTO 22016G20KT 10SM BKN050 BKN070 OVC090 M07/M15 A2987 RMK AO2 T10701146
KEEO - Meeker, Colorado, USA
Distance from station: SSW 269mi, 433km
Updated: Sat, 24-Feb-2018 3:53pm MST
Overcast
Overcast
 Wind from SSW
Wind: SSW 12 mph , 19 km/h
Temperature: 21°F , -6°C
Wind Chill: 9°F , -13°C
Dew Point: 12°F , -11°C
Humidity: 68%
Barometer: 29.89 inHg , 1012.2 hPa
Clouds: Overcast
Visibility: 10 miles , 16 km
Cloud details: Mostly cloudy 5000 ft
Overcast 6500 ft
2018/02/24 22:53 KEEO 242253Z AUTO 21010KT 10SM BKN050 OVC065 M06/M11 A2989 RMK AO2 WSHFT 2224 SLP164 T10561111